Terminal Aerodrome Forecast
Issued by NWS St Louis, MO

Home | Current Version | Previous Version | Text Only | Print | Product List | Glossary On
Versions: 1 2 3 4 5 6 7 8 9 10 11 12 13 14 15 16 17
110
FTUS43 KLSX 261018 AAB
TAFCOU
TAF AMD
KCOU 261018Z 2610/2706 12010KT P6SM OVC005
     FM261400 18007KT P6SM OVC008
     FM261800 29009KT 5SM -SHRA VCTS OVC010CB
     FM262300 32010KT P6SM OVC020=

USA.gov is the U.S. government's official web portal to all federal, state and local government web resources and services.